Silverbow, Montana
Current Conditions -  °F | °C
As of 6:53 PM on Friday 28 Nov 2014 (Local Time) from KBTM Reporting Station
Clear Clear  
Wind Chill: 39°   Ceiling: Unl
Heat Index: 45°   Visibility: 10mi
Dew Point: 17°   Wind: 13mph
Humidity: 33%   Direction: 230°SW
Pressure: 29.48"   Gusts: 24mph
Location:  45.9803°N, 112.771°W
Report Text: KBTM 290153Z AUTO 23011G21KT 10SM CLR 07/M08 A2948 RMK AO2 SLP968 T00721083
Loading
Personal Weather Stations






























Interactive Weather Map New forecast layout! Learn more

10-Day Weather Forecast

Advertisements
Track Severe Weather on mobile